createdAt,value
2022-11-12T00:00:12.266Z,66.56
2022-11-12T00:01:32.901Z,66.58
2022-11-12T00:02:53.889Z,66.58
2022-11-12T00:04:14.302Z,66.52
2022-11-12T00:05:35.566Z,66.56
2022-11-12T00:06:59.736Z,66.58
2022-11-12T00:08:21.062Z,66.60
2022-11-12T00:09:42.016Z,66.67
2022-11-12T00:11:04.985Z,66.67
2022-11-12T00:12:26.381Z,66.64
2022-11-12T00:13:47.177Z,66.58
2022-11-12T00:15:08.456Z,66.72
2022-11-12T00:16:28.761Z,66.71
2022-11-12T00:17:49.338Z,66.73
2022-11-12T00:19:10.644Z,66.86
2022-11-12T00:20:31.493Z,66.95
2022-11-12T00:21:52.041Z,67.00
2022-11-12T00:23:12.626Z,66.98
2022-11-12T00:24:36.309Z,66.96
2022-11-12T00:26:01.391Z,67.03
2022-11-12T00:27:22.511Z,66.99
2022-11-12T00:28:43.958Z,67.11
2022-11-12T00:30:05.288Z,67.09
2022-11-12T00:31:26.174Z,67.09
2022-11-12T00:32:47.010Z,67.08
2022-11-12T00:34:08.218Z,67.11
2022-11-12T00:35:28.986Z,67.16
2022-11-12T00:36:49.844Z,67.19
2022-11-12T00:38:10.993Z,67.06
2022-11-12T00:39:32.644Z,67.20
2022-11-12T00:40:53.390Z,67.21
2022-11-12T00:42:14.495Z,67.27
2022-11-12T00:43:34.985Z,67.30
2022-11-12T00:44:56.134Z,67.33
2022-11-12T00:46:17.138Z,67.17
2022-11-12T00:47:37.967Z,67.34
2022-11-12T00:48:58.674Z,67.34
2022-11-12T00:50:19.426Z,67.41
2022-11-12T00:51:41.913Z,67.37
2022-11-12T00:53:02.724Z,67.35
2022-11-12T00:54:23.431Z,67.46
2022-11-12T00:55:44.128Z,67.32
2022-11-12T00:57:04.741Z,67.48
2022-11-12T00:58:25.696Z,67.51
2022-11-12T00:59:46.876Z,67.47
2022-11-12T01:01:13.617Z,67.50
2022-11-12T01:02:42.296Z,67.42
2022-11-12T01:04:04.110Z,67.49
2022-11-12T01:05:25.185Z,67.41
2022-11-12T01:06:46.016Z,67.60
2022-11-12T01:08:07.258Z,67.55
2022-11-12T01:09:28.301Z,67.56
2022-11-12T01:10:49.322Z,67.59
2022-11-12T01:12:10.042Z,67.57
2022-11-12T01:13:30.567Z,67.62
2022-11-12T01:14:51.220Z,67.64
2022-11-12T01:16:20.005Z,67.72
2022-11-12T01:17:40.749Z,67.58
2022-11-12T01:19:07.077Z,67.73
2022-11-12T01:20:27.811Z,67.62
2022-11-12T01:21:48.289Z,67.64
2022-11-12T01:23:09.078Z,67.71
2022-11-12T01:24:29.631Z,67.66
2022-11-12T01:25:50.562Z,67.63
2022-11-12T01:27:11.165Z,67.59
2022-11-12T01:28:31.971Z,67.64
2022-11-12T01:29:52.593Z,67.70
2022-11-12T01:31:24.951Z,67.87
2022-11-12T01:32:45.670Z,67.73
2022-11-12T01:34:08.528Z,67.84
2022-11-12T01:35:30.189Z,67.78
2022-11-12T01:36:50.767Z,67.95
2022-11-12T01:38:11.544Z,67.82
2022-11-12T01:39:34.554Z,67.94
2022-11-12T01:40:55.428Z,67.88
2022-11-12T01:42:16.282Z,67.98
2022-11-12T01:43:37.152Z,67.93
2022-11-12T01:44:58.136Z,67.93
2022-11-12T01:46:27.706Z,68.01
2022-11-12T01:47:52.251Z,68.03
2022-11-12T01:49:21.552Z,67.97
2022-11-12T01:50:42.117Z,67.89
2022-11-12T01:52:17.744Z,68.02
2022-11-12T01:53:45.727Z,67.99
2022-11-12T01:55:12.796Z,67.96
2022-11-12T01:56:33.876Z,67.96
2022-11-12T01:58:08.676Z,68.10
2022-11-12T01:59:36.571Z,68.13
2022-11-12T02:00:57.803Z,68.15
2022-11-12T02:02:18.764Z,68.22
2022-11-12T02:03:39.794Z,68.06
2022-11-12T02:05:02.224Z,68.25
2022-11-12T02:06:25.148Z,68.26
2022-11-12T02:07:47.114Z,68.31
2022-11-12T02:09:08.096Z,68.26
2022-11-12T02:10:29.544Z,68.31
2022-11-12T02:11:50.216Z,68.19
2022-11-12T02:13:30.221Z,68.27
2022-11-12T02:14:51.063Z,68.29
2022-11-12T02:16:11.639Z,68.36
2022-11-12T02:17:33.191Z,68.30
2022-11-12T02:18:53.599Z,68.38
2022-11-12T02:20:15.416Z,68.37
2022-11-12T02:21:36.716Z,68.36
2022-11-12T02:22:57.540Z,68.36
2022-11-12T02:24:18.107Z,68.35
2022-11-12T02:25:38.845Z,68.34
2022-11-12T02:27:00.464Z,68.39
2022-11-12T02:28:22.129Z,68.51
2022-11-12T02:29:46.634Z,68.39
2022-11-12T02:31:07.758Z,68.39
2022-11-12T02:32:28.957Z,68.47
2022-11-12T02:33:49.813Z,68.38
2022-11-12T02:35:10.276Z,68.39
2022-11-12T02:36:31.300Z,68.45
2022-11-12T02:37:52.073Z,68.43
2022-11-12T02:39:12.584Z,68.42
2022-11-12T02:40:33.616Z,68.42
2022-11-12T02:41:56.604Z,68.55
2022-11-12T02:43:18.430Z,68.58
2022-11-12T02:44:39.412Z,68.50
2022-11-12T02:46:00.634Z,68.56
2022-11-12T02:47:21.390Z,68.45
2022-11-12T02:48:42.279Z,68.60
2022-11-12T02:50:05.836Z,68.66
2022-11-12T02:51:26.677Z,68.59
2022-11-12T02:52:47.272Z,68.68
2022-11-12T02:54:08.502Z,68.74
2022-11-12T02:55:28.983Z,68.63
2022-11-12T02:56:49.880Z,68.54
2022-11-12T02:58:10.588Z,68.61
2022-11-12T02:59:31.344Z,68.63
2022-11-12T03:00:52.774Z,68.69
2022-11-12T03:02:13.806Z,68.70
2022-11-12T03:03:34.300Z,68.60
2022-11-12T03:04:55.335Z,68.68
2022-11-12T03:06:16.572Z,68.62
2022-11-12T03:07:38.723Z,68.62
2022-11-12T03:08:59.394Z,68.74
2022-11-12T03:10:20.193Z,68.67
2022-11-12T03:11:41.047Z,68.68
2022-11-12T03:13:01.926Z,68.66
2022-11-12T03:14:25.438Z,68.71
2022-11-12T03:15:46.588Z,68.64
2022-11-12T03:17:07.309Z,68.72
2022-11-12T03:18:28.238Z,68.57
2022-11-12T03:19:51.167Z,68.83
2022-11-12T03:21:13.132Z,68.75
2022-11-12T03:22:33.677Z,68.83
2022-11-12T03:23:54.684Z,68.83
2022-11-12T03:25:15.547Z,68.81
2022-11-12T03:26:36.596Z,68.77
2022-11-12T03:28:02.272Z,68.88
2022-11-12T03:29:22.794Z,68.92
2022-11-12T03:30:44.488Z,68.80
2022-11-12T03:32:05.063Z,68.77
2022-11-12T03:33:26.120Z,68.83
2022-11-12T03:34:47.262Z,68.92
2022-11-12T03:36:09.059Z,68.85
2022-11-12T03:37:29.596Z,68.87
2022-11-12T03:38:51.119Z,68.93
2022-11-12T03:40:19.283Z,68.79
2022-11-12T03:41:40.048Z,68.93
2022-11-12T03:43:00.672Z,68.89
2022-11-12T03:44:21.628Z,69.09
2022-11-12T03:45:42.095Z,69.18
2022-11-12T03:47:03.357Z,69.00
2022-11-12T03:48:24.365Z,68.87
2022-11-12T03:49:45.344Z,68.95
2022-11-12T03:51:06.244Z,68.98
2022-11-12T03:52:26.820Z,68.88
2022-11-12T03:53:47.727Z,68.95
2022-11-12T03:55:08.761Z,68.86
2022-11-12T03:56:29.743Z,68.83
2022-11-12T03:58:03.393Z,68.82
2022-11-12T03:59:24.459Z,68.82
2022-11-12T04:00:45.343Z,68.67
2022-11-12T04:02:08.396Z,68.75
2022-11-12T04:03:29.257Z,68.79
2022-11-12T04:05:08.442Z,68.71
2022-11-12T04:06:47.833Z,68.78
2022-11-12T04:08:37.541Z,68.83
2022-11-12T04:09:58.639Z,68.79
2022-11-12T04:11:21.166Z,68.81
2022-11-12T04:13:00.439Z,68.88
2022-11-12T04:14:21.368Z,68.78
2022-11-12T04:15:42.022Z,68.73
2022-11-12T04:17:21.084Z,68.76
2022-11-12T04:19:01.116Z,68.76
2022-11-12T04:20:40.753Z,68.73
2022-11-12T04:22:03.627Z,68.88
2022-11-12T04:23:24.130Z,68.80
2022-11-12T04:25:03.819Z,68.75
2022-11-12T04:26:24.531Z,68.85
2022-11-12T04:27:45.146Z,68.60
2022-11-12T04:29:24.299Z,68.66
2022-11-12T04:30:45.231Z,68.72
2022-11-12T04:32:06.094Z,68.88
2022-11-12T04:33:27.133Z,68.86
2022-11-12T04:34:51.145Z,68.77
2022-11-12T04:36:14.650Z,68.87
2022-11-12T04:37:47.129Z,68.87
2022-11-12T04:39:08.039Z,68.78
2022-11-12T04:40:47.268Z,68.90
2022-11-12T04:42:30.953Z,68.81
2022-11-12T04:44:10.212Z,68.83
2022-11-12T04:45:33.590Z,68.66
2022-11-12T04:46:54.401Z,68.74
2022-11-12T04:48:15.220Z,68.80
2022-11-12T04:49:36.188Z,68.72
2022-11-12T04:51:25.792Z,68.77
2022-11-12T04:54:20.507Z,68.87
2022-11-12T04:55:41.510Z,68.83
2022-11-12T04:57:02.296Z,68.83
2022-11-12T04:58:31.333Z,68.80
2022-11-12T04:59:52.229Z,68.78
2022-11-12T05:01:13.023Z,68.84
2022-11-12T05:02:34.089Z,68.95
2022-11-12T05:03:54.914Z,68.74
2022-11-12T05:05:15.833Z,68.89
2022-11-12T05:06:51.932Z,68.75
2022-11-12T05:08:12.981Z,68.83
2022-11-12T05:09:33.856Z,68.86
2022-11-12T05:10:54.737Z,68.88
2022-11-12T05:12:15.556Z,68.99
2022-11-12T05:13:35.977Z,68.88
2022-11-12T05:14:56.734Z,68.84
2022-11-12T05:16:17.510Z,68.86
2022-11-12T05:17:44.963Z,69.05
2022-11-12T05:19:06.286Z,68.94
2022-11-12T05:20:27.416Z,68.95
2022-11-12T05:22:06.308Z,68.97
2022-11-12T05:23:28.279Z,68.95
2022-11-12T05:24:52.132Z,69.10
2022-11-12T05:26:13.046Z,68.99
2022-11-12T05:27:34.539Z,68.96
2022-11-12T05:28:54.949Z,68.98
2022-11-12T05:30:15.999Z,68.97
2022-11-12T05:31:39.522Z,68.90
2022-11-12T05:33:00.116Z,68.87
2022-11-12T05:34:23.192Z,68.85
2022-11-12T05:35:43.764Z,68.96
2022-11-12T05:37:09.393Z,68.94
2022-11-12T05:38:30.199Z,68.84
2022-11-12T05:39:50.706Z,68.91
2022-11-12T05:41:14.843Z,68.86
2022-11-12T05:42:38.345Z,69.02
2022-11-12T05:43:59.231Z,68.95
2022-11-12T05:45:19.657Z,69.04
2022-11-12T05:46:40.714Z,69.07
2022-11-12T05:48:01.241Z,68.86
2022-11-12T05:49:22.178Z,68.98
2022-11-12T05:51:06.087Z,68.93
2022-11-12T05:52:23.489Z,68.91
2022-11-12T05:53:44.023Z,68.95
2022-11-12T05:55:04.931Z,69.08
2022-11-12T05:56:25.767Z,68.96
2022-11-12T05:57:46.443Z,69.08
2022-11-12T05:59:12.401Z,68.96
2022-11-12T06:00:39.094Z,69.08
2022-11-12T06:01:59.820Z,68.95
2022-11-12T06:03:20.525Z,69.04
2022-11-12T06:04:40.939Z,69.02
2022-11-12T06:06:01.733Z,69.08
2022-11-12T06:07:25.427Z,69.22
2022-11-12T06:08:49.492Z,69.19
2022-11-12T06:10:10.343Z,69.17
2022-11-12T06:11:31.523Z,69.13
2022-11-12T06:12:52.361Z,69.24
2022-11-12T06:14:13.260Z,69.26
2022-11-12T06:15:39.133Z,69.32
2022-11-12T06:17:00.358Z,69.22
2022-11-12T06:18:27.348Z,69.21
2022-11-12T06:19:48.383Z,69.16
2022-11-12T06:21:23.262Z,69.18
2022-11-12T06:22:43.857Z,69.22
2022-11-12T06:24:04.900Z,69.17
2022-11-12T06:25:25.962Z,69.22
2022-11-12T06:26:47.111Z,69.25
2022-11-12T06:28:10.590Z,69.46
2022-11-12T06:29:32.230Z,69.23
2022-11-12T06:30:52.897Z,69.16
2022-11-12T06:32:14.106Z,69.20
2022-11-12T06:33:34.822Z,69.27
2022-11-12T06:34:57.759Z,69.21
2022-11-12T06:36:24.603Z,69.16
2022-11-12T06:37:47.536Z,69.31
2022-11-12T06:39:08.380Z,69.30
2022-11-12T06:40:29.190Z,69.32
2022-11-12T06:41:49.943Z,69.41
2022-11-12T06:43:10.522Z,69.24
2022-11-12T06:44:31.272Z,69.39
2022-11-12T06:45:52.070Z,69.30
2022-11-12T06:47:13.637Z,69.27
2022-11-12T06:48:34.578Z,69.30
2022-11-12T06:49:55.365Z,69.25
2022-11-12T06:51:19.420Z,69.49
2022-11-12T06:52:40.019Z,69.34
2022-11-12T06:54:03.853Z,69.37
2022-11-12T06:55:24.574Z,69.49
2022-11-12T06:56:48.122Z,69.53
2022-11-12T06:58:08.985Z,69.66
2022-11-12T06:59:29.971Z,69.65
2022-11-12T07:00:50.805Z,69.74
2022-11-12T07:02:13.544Z,69.89
2022-11-12T07:03:35.621Z,69.78
2022-11-12T07:05:04.130Z,69.90
2022-11-12T07:06:24.975Z,69.85
2022-11-12T07:07:45.976Z,69.82
2022-11-12T07:09:09.165Z,69.83
2022-11-12T07:10:30.011Z,69.68
2022-11-12T07:11:51.318Z,69.56
2022-11-12T07:13:12.611Z,69.52
2022-11-12T07:14:33.301Z,69.55
2022-11-12T07:15:57.168Z,69.48
2022-11-12T07:17:18.129Z,69.53
2022-11-12T07:18:38.783Z,69.68
2022-11-12T07:20:03.917Z,69.60
2022-11-12T07:21:25.135Z,69.57
2022-11-12T07:22:45.806Z,69.54
2022-11-12T07:24:06.556Z,69.71
2022-11-12T07:25:27.207Z,69.88
2022-11-12T07:26:48.225Z,69.73
2022-11-12T07:28:16.664Z,69.58
2022-11-12T07:29:47.696Z,69.43
2022-11-12T07:31:11.982Z,69.26
2022-11-12T07:32:33.888Z,68.94
2022-11-12T07:33:56.870Z,68.79
2022-11-12T07:35:17.522Z,68.68
2022-11-12T07:36:37.985Z,68.62
2022-11-12T07:37:59.821Z,68.27
2022-11-12T07:39:20.494Z,68.25
2022-11-12T07:40:41.233Z,68.03
2022-11-12T07:42:01.966Z,68.01
2022-11-12T07:43:22.856Z,67.77
2022-11-12T07:44:43.367Z,67.74
2022-11-12T07:46:12.753Z,67.68
2022-11-12T07:47:33.502Z,67.57
2022-11-12T07:48:54.842Z,67.46
2022-11-12T07:50:15.829Z,67.57
2022-11-12T07:51:36.789Z,67.57
2022-11-12T07:53:01.138Z,67.73
2022-11-12T07:54:21.766Z,67.77
2022-11-12T07:55:42.676Z,67.79
2022-11-12T07:57:03.484Z,67.79
2022-11-12T07:58:25.134Z,67.88
2022-11-12T07:59:46.636Z,67.99
2022-11-12T08:01:19.607Z,67.94
2022-11-12T08:02:40.616Z,68.03
2022-11-12T08:04:02.946Z,68.09
2022-11-12T08:05:23.863Z,68.07
2022-11-12T08:06:44.390Z,68.28
2022-11-12T08:08:05.353Z,68.25
2022-11-12T08:09:26.113Z,68.28
2022-11-12T08:10:46.935Z,68.22
2022-11-12T08:12:07.882Z,68.46
2022-11-12T08:13:31.316Z,68.34
2022-11-12T08:14:52.004Z,68.36
2022-11-12T08:16:13.181Z,68.52
2022-11-12T08:17:38.583Z,68.51
2022-11-12T08:18:59.177Z,68.51
2022-11-12T08:20:19.938Z,68.54
2022-11-12T08:21:40.831Z,68.57
2022-11-12T08:23:02.121Z,68.59
2022-11-12T08:24:22.646Z,68.41
2022-11-12T08:25:43.393Z,68.63
2022-11-12T08:27:03.884Z,68.69
2022-11-12T08:28:24.891Z,68.59
2022-11-12T08:29:49.094Z,68.64
2022-11-12T08:31:18.371Z,68.69
2022-11-12T08:32:39.200Z,68.72
2022-11-12T08:33:59.932Z,68.82
2022-11-12T08:35:20.555Z,68.70
2022-11-12T08:36:41.383Z,68.91
2022-11-12T08:38:07.297Z,68.94
2022-11-12T08:39:28.280Z,69.01
2022-11-12T08:40:48.841Z,69.21
2022-11-12T08:42:09.809Z,69.35
2022-11-12T08:43:30.906Z,69.40
2022-11-12T08:44:52.217Z,69.46
2022-11-12T08:46:21.773Z,69.39
2022-11-12T08:47:42.586Z,69.36
2022-11-12T08:49:05.979Z,69.30
2022-11-12T08:50:27.559Z,69.27
2022-11-12T08:51:48.314Z,69.33
2022-11-12T08:53:12.113Z,69.49
2022-11-12T08:54:32.639Z,69.67
2022-11-12T08:55:54.545Z,69.53
2022-11-12T08:57:14.926Z,69.43
2022-11-12T08:58:36.117Z,69.38
2022-11-12T08:59:59.163Z,69.41
2022-11-12T09:01:22.211Z,69.18
2022-11-12T09:02:42.904Z,69.01
2022-11-12T09:04:03.415Z,68.96
2022-11-12T09:05:24.009Z,68.75
2022-11-12T09:06:47.660Z,68.37
2022-11-12T09:08:13.976Z,68.03
2022-11-12T09:09:34.829Z,68.12
2022-11-12T09:10:58.227Z,67.83
2022-11-12T09:12:19.956Z,67.86
2022-11-12T09:13:40.885Z,67.69
2022-11-12T09:15:35.644Z,67.43
2022-11-12T09:16:54.746Z,67.27
2022-11-12T09:18:17.479Z,66.91
2022-11-12T09:19:42.671Z,66.97
2022-11-12T09:21:25.024Z,66.49
2022-11-12T09:22:46.031Z,66.55
2022-11-12T09:24:06.686Z,66.44
2022-11-12T09:25:27.956Z,66.01
2022-11-12T09:26:52.382Z,65.79
2022-11-12T09:28:18.450Z,65.66
2022-11-12T09:29:39.374Z,65.56
2022-11-12T09:31:00.054Z,65.63
2022-11-12T09:32:21.202Z,65.58
2022-11-12T09:33:42.175Z,65.63
2022-11-12T09:35:02.778Z,65.40
2022-11-12T09:36:23.680Z,65.46
2022-11-12T09:37:53.501Z,65.13
2022-11-12T09:39:20.070Z,65.07
2022-11-12T09:40:49.044Z,64.81
2022-11-12T09:42:15.382Z,64.40
2022-11-12T09:43:44.806Z,64.13
2022-11-12T09:45:19.906Z,64.00
2022-11-12T09:46:53.021Z,63.61
2022-11-12T09:48:21.675Z,63.07
2022-11-12T09:49:55.441Z,62.85
2022-11-12T09:51:27.246Z,62.43
2022-11-12T09:52:52.680Z,62.28
2022-11-12T09:54:22.722Z,61.70
2022-11-12T09:55:47.199Z,61.77
2022-11-12T09:57:20.457Z,61.55
2022-11-12T09:58:41.240Z,61.23
2022-11-12T10:00:03.600Z,61.16
2022-11-12T10:01:39.187Z,60.92
2022-11-12T10:03:28.130Z,60.56
2022-11-12T10:05:00.933Z,59.98
2022-11-12T10:06:34.706Z,59.11
2022-11-12T10:08:35.109Z,59.32
2022-11-12T10:10:14.950Z,59.27
2022-11-12T10:12:21.007Z,59.07
2022-11-12T10:13:44.731Z,58.88
2022-11-12T10:15:48.766Z,58.40
2022-11-12T10:17:16.472Z,57.88
2022-11-12T10:19:10.182Z,57.47
2022-11-12T10:20:42.190Z,56.89
2022-11-12T10:22:35.188Z,56.64
2022-11-12T10:23:57.219Z,56.12
2022-11-12T10:25:19.970Z,55.73
2022-11-12T10:26:40.865Z,55.31
2022-11-12T10:28:15.832Z,54.27
2022-11-12T10:29:52.650Z,54.29
2022-11-12T10:31:21.053Z,53.97
2022-11-12T10:32:47.801Z,54.12
2022-11-12T10:34:15.194Z,53.66
2022-11-12T10:35:36.849Z,53.21
2022-11-12T10:37:04.565Z,52.81
2022-11-12T10:38:28.123Z,52.35
2022-11-12T10:39:49.105Z,52.79
2022-11-12T10:41:24.820Z,52.97
2022-11-12T10:43:17.677Z,52.87
2022-11-12T10:44:39.916Z,52.21
2022-11-12T10:46:18.886Z,51.98
2022-11-12T10:47:43.077Z,51.88
2022-11-12T10:49:23.111Z,51.45
2022-11-12T10:50:44.301Z,51.12
2022-11-12T10:52:04.862Z,50.90
2022-11-12T10:53:37.750Z,51.18
2022-11-12T10:55:37.107Z,51.37
2022-11-12T10:57:18.820Z,50.97
2022-11-12T10:58:39.445Z,50.82
2022-11-12T11:00:29.930Z,50.78
2022-11-12T11:02:00.188Z,49.95
2022-11-12T11:03:31.244Z,49.68
2022-11-12T11:04:52.268Z,50.08
2022-11-12T11:06:15.604Z,49.65
2022-11-12T11:07:36.651Z,49.97
2022-11-12T11:09:12.882Z,49.70
2022-11-12T11:10:36.045Z,49.63
2022-11-12T11:11:56.930Z,49.20
2022-11-12T11:13:23.347Z,49.14
2022-11-12T11:14:44.738Z,49.28
2022-11-12T11:16:08.203Z,48.64
2022-11-12T11:17:29.189Z,49.08
2022-11-12T11:19:02.747Z,48.98
2022-11-12T11:20:25.901Z,49.07
2022-11-12T11:21:49.683Z,48.64
2022-11-12T11:23:37.287Z,49.03
2022-11-12T11:25:14.776Z,48.48
2022-11-12T11:27:13.111Z,48.43
2022-11-12T11:28:47.545Z,47.69
2022-11-12T11:30:20.803Z,47.84
2022-11-12T11:31:53.741Z,47.51
2022-11-12T11:33:14.152Z,47.66
2022-11-12T11:34:37.958Z,47.31
2022-11-12T11:36:04.897Z,47.41
2022-11-12T11:37:31.094Z,47.44
2022-11-12T11:38:56.690Z,47.54
2022-11-12T11:40:27.559Z,47.42
2022-11-12T11:42:11.606Z,47.19
2022-11-12T11:43:46.594Z,47.16
2022-11-12T11:45:27.210Z,47.48
2022-11-12T11:47:06.165Z,47.43
2022-11-12T11:48:55.008Z,48.05
2022-11-12T11:50:18.005Z,47.73
2022-11-12T11:52:10.216Z,48.04
2022-11-12T11:53:51.782Z,48.07
2022-11-12T11:55:15.502Z,47.47
2022-11-12T11:56:45.418Z,47.38
2022-11-12T11:58:49.310Z,47.67
2022-11-12T12:00:23.907Z,47.11
2022-11-12T12:01:50.996Z,46.92
2022-11-12T12:03:19.765Z,47.31
2022-11-12T12:05:11.412Z,47.16
2022-11-12T12:06:45.666Z,47.23
2022-11-12T12:08:27.344Z,47.20
2022-11-12T12:10:12.692Z,48.12
2022-11-12T12:12:05.045Z,48.56
2022-11-12T12:14:03.411Z,48.38
2022-11-12T12:15:43.257Z,47.69
2022-11-12T12:17:19.660Z,47.40
2022-11-12T12:19:08.011Z,48.19
2022-11-12T12:20:48.016Z,48.39
2022-11-12T12:22:26.600Z,48.08
2022-11-12T12:24:02.105Z,48.63
2022-11-12T12:25:38.215Z,48.02
2022-11-12T12:27:21.004Z,47.92
2022-11-12T12:28:57.343Z,47.91
2022-11-12T12:30:25.253Z,47.66
2022-11-12T12:31:55.476Z,47.55
2022-11-12T12:33:26.361Z,47.46
2022-11-12T12:34:51.640Z,47.70
2022-11-12T12:36:27.336Z,47.73
2022-11-12T12:38:08.975Z,47.04
2022-11-12T12:39:53.203Z,47.33
2022-11-12T12:41:32.954Z,47.04
2022-11-12T12:42:59.753Z,46.62
2022-11-12T12:44:20.391Z,46.58
2022-11-12T12:45:43.825Z,46.65
2022-11-12T12:47:05.393Z,47.08
2022-11-12T12:50:15.920Z,47.38
2022-11-12T12:51:37.040Z,47.40
2022-11-12T12:53:01.855Z,47.36
2022-11-12T12:54:40.835Z,48.08
2022-11-12T12:56:07.304Z,47.30
2022-11-12T12:57:37.284Z,47.02
2022-11-12T12:59:03.713Z,47.17
2022-11-12T13:00:34.657Z,47.03
2022-11-12T13:02:01.111Z,47.31
2022-11-12T13:03:43.860Z,47.57
2022-11-12T13:05:05.164Z,47.50
2022-11-12T13:06:30.082Z,47.48
2022-11-12T13:07:54.773Z,47.71
2022-11-12T13:09:15.753Z,47.60
2022-11-12T13:10:42.084Z,47.34
2022-11-12T13:12:05.646Z,47.43
2022-11-12T13:13:33.122Z,47.49
2022-11-12T13:15:14.056Z,47.78
2022-11-12T13:16:51.206Z,47.64
2022-11-12T13:18:17.146Z,47.24
2022-11-12T13:19:57.432Z,47.34
2022-11-12T13:21:20.689Z,47.06
2022-11-12T13:22:41.692Z,47.09
2022-11-12T13:24:06.841Z,47.21
2022-11-12T13:25:37.795Z,47.44
2022-11-12T13:26:59.784Z,47.46
2022-11-12T13:28:20.475Z,47.64
2022-11-12T13:29:42.408Z,47.42
2022-11-12T13:31:04.517Z,47.63
2022-11-12T13:32:34.071Z,47.63
2022-11-12T13:33:54.930Z,47.77
2022-11-12T13:35:23.019Z,47.78
2022-11-12T13:36:56.980Z,47.84
2022-11-12T13:38:17.647Z,47.78
2022-11-12T13:39:39.739Z,47.97
2022-11-12T13:41:16.400Z,48.21
2022-11-12T13:42:55.102Z,48.45
2022-11-12T13:44:17.149Z,48.48
2022-11-12T13:45:45.089Z,48.63
2022-11-12T13:47:05.947Z,48.86
2022-11-12T13:48:39.904Z,49.05
2022-11-12T13:50:01.802Z,48.88
2022-11-12T13:51:45.449Z,49.33
2022-11-12T13:53:16.523Z,48.94
2022-11-12T13:54:38.525Z,49.04
2022-11-12T13:56:00.174Z,49.18
2022-11-12T13:57:26.371Z,48.86
2022-11-12T13:58:49.520Z,49.26
2022-11-12T14:00:25.542Z,49.21
2022-11-12T14:01:48.554Z,49.19
2022-11-12T14:03:17.573Z,49.48
2022-11-12T14:04:39.963Z,49.70
2022-11-12T14:06:06.371Z,49.57
2022-11-12T14:07:27.291Z,49.18
2022-11-12T14:09:23.297Z,49.02
2022-11-12T14:11:09.113Z,49.10
2022-11-12T14:12:51.484Z,48.78
2022-11-12T14:14:21.540Z,48.79
2022-11-12T14:16:07.438Z,48.70
2022-11-12T14:17:52.577Z,48.81
2022-11-12T14:19:55.858Z,48.41
2022-11-12T14:21:19.325Z,47.96
2022-11-12T14:22:42.811Z,47.86
2022-11-12T14:24:04.764Z,48.14
2022-11-12T14:25:27.601Z,48.59
2022-11-12T14:26:48.150Z,48.13
2022-11-12T14:28:24.280Z,48.55
2022-11-12T14:29:45.121Z,48.75
2022-11-12T14:31:15.084Z,48.21
2022-11-12T14:32:38.393Z,48.12
2022-11-12T14:34:21.974Z,48.45
2022-11-12T14:35:42.741Z,48.22
2022-11-12T14:37:03.271Z,48.50
2022-11-12T14:38:29.745Z,48.30
2022-11-12T14:39:53.661Z,48.10
2022-11-12T14:41:17.348Z,48.66
2022-11-12T14:42:37.900Z,48.33
2022-11-12T14:44:12.546Z,48.44
2022-11-12T14:45:35.448Z,48.79
2022-11-12T14:46:58.963Z,48.91
2022-11-12T14:48:23.098Z,48.77
2022-11-12T14:49:48.179Z,48.88
2022-11-12T14:51:14.197Z,48.61
2022-11-12T14:52:40.522Z,48.63
2022-11-12T14:54:14.121Z,48.81
2022-11-12T14:55:37.584Z,48.75
2022-11-12T14:57:02.908Z,48.86
2022-11-12T14:58:27.160Z,48.69
2022-11-12T14:59:47.849Z,49.04
2022-11-12T15:02:21.649Z,49.13
2022-11-12T15:03:23.477Z,48.91
2022-11-12T15:04:54.890Z,49.05
2022-11-12T15:06:43.941Z,49.34
2022-11-12T15:08:10.343Z,49.39
2022-11-12T15:09:38.516Z,49.43
2022-11-12T15:11:22.367Z,49.59
2022-11-12T15:12:43.716Z,49.88
2022-11-12T15:14:04.626Z,50.02
2022-11-12T15:15:25.414Z,50.16
2022-11-12T15:16:46.248Z,50.22
2022-11-12T15:18:22.291Z,50.80
2022-11-12T15:19:43.215Z,50.99
2022-11-12T15:21:23.013Z,51.38
2022-11-12T15:22:51.303Z,51.46
2022-11-12T15:24:12.317Z,51.28
2022-11-12T15:25:36.235Z,51.54
2022-11-12T15:26:59.291Z,51.49
2022-11-12T15:28:26.479Z,51.76
2022-11-12T15:29:47.922Z,51.80
2022-11-12T15:31:21.969Z,52.00
2022-11-12T15:32:43.388Z,52.11
2022-11-12T15:34:33.934Z,52.24
2022-11-12T15:35:58.016Z,52.40
2022-11-12T15:37:28.234Z,52.56
2022-11-12T15:38:51.938Z,52.43
2022-11-12T15:40:21.030Z,52.69
2022-11-12T15:41:41.928Z,52.62
2022-11-12T15:43:10.867Z,52.93
2022-11-12T15:44:36.758Z,52.83
2022-11-12T15:45:57.599Z,53.03
2022-11-12T15:47:21.715Z,52.93
2022-11-12T15:48:42.361Z,53.04
2022-11-12T15:50:15.623Z,53.21
2022-11-12T15:51:36.459Z,53.26
2022-11-12T15:52:57.295Z,53.09
2022-11-12T15:54:18.446Z,53.18
2022-11-12T15:55:40.143Z,53.21
2022-11-12T15:57:01.128Z,53.32
2022-11-12T15:58:35.961Z,53.32
2022-11-12T16:00:08.430Z,53.46
2022-11-12T16:01:29.471Z,53.45
2022-11-12T16:02:59.401Z,53.75
2022-11-12T16:04:20.019Z,53.74
2022-11-12T16:05:41.329Z,53.72
2022-11-12T16:07:02.413Z,53.68
2022-11-12T16:08:23.553Z,53.69
2022-11-12T16:09:44.287Z,53.73
2022-11-12T16:11:25.289Z,53.77
2022-11-12T16:12:48.189Z,53.92
2022-11-12T16:14:13.828Z,54.04
2022-11-12T16:15:34.647Z,54.07
2022-11-12T16:16:56.755Z,54.16
2022-11-12T16:18:17.824Z,54.20
2022-11-12T16:19:41.483Z,54.38
2022-11-12T16:21:02.328Z,54.44
2022-11-12T16:22:22.923Z,54.68
2022-11-12T16:23:43.706Z,54.79
2022-11-12T16:25:07.560Z,54.75
2022-11-12T16:26:31.554Z,54.87
2022-11-12T16:27:55.874Z,54.86
2022-11-12T16:29:17.224Z,54.96
2022-11-12T16:30:38.137Z,55.06
2022-11-12T16:31:58.609Z,55.15
2022-11-12T16:33:19.344Z,55.40
2022-11-12T16:34:40.224Z,55.48
2022-11-12T16:36:00.720Z,55.59
2022-11-12T16:37:21.264Z,55.64
2022-11-12T16:38:42.558Z,55.66
2022-11-12T16:40:03.656Z,55.73
2022-11-12T16:41:25.245Z,55.64
2022-11-12T16:42:46.078Z,55.75
2022-11-12T16:44:06.720Z,56.05
2022-11-12T16:45:36.098Z,56.16
2022-11-12T16:46:56.769Z,56.14
2022-11-12T16:48:22.365Z,56.22
2022-11-12T16:49:42.938Z,56.33
2022-11-12T16:52:38.215Z,56.56
2022-11-12T16:53:58.692Z,56.66
2022-11-12T16:55:22.748Z,57.02
2022-11-12T16:56:43.443Z,56.91
2022-11-12T16:58:07.246Z,56.94
2022-11-12T16:59:28.186Z,56.89
2022-11-12T17:00:52.065Z,56.85
2022-11-12T17:02:15.893Z,57.13
2022-11-12T17:03:36.364Z,57.28
2022-11-12T17:04:57.043Z,57.26
2022-11-12T17:06:18.546Z,57.36
2022-11-12T17:07:39.099Z,57.19
2022-11-12T17:09:00.147Z,57.22
2022-11-12T17:10:24.065Z,57.21
2022-11-12T17:11:44.820Z,57.15
2022-11-12T17:13:05.262Z,57.46
2022-11-12T17:14:28.791Z,57.57
2022-11-12T17:15:57.721Z,57.83
2022-11-12T17:17:18.709Z,58.01
2022-11-12T17:18:40.287Z,57.93
2022-11-12T17:20:01.049Z,57.95
2022-11-12T17:21:22.272Z,58.07
2022-11-12T17:22:43.064Z,58.07
2022-11-12T17:24:06.122Z,58.20
2022-11-12T17:25:29.229Z,58.32
2022-11-12T17:26:50.079Z,58.24
2022-11-12T17:28:10.823Z,58.42
2022-11-12T17:29:31.718Z,58.42
2022-11-12T17:31:12.305Z,58.52
2022-11-12T17:32:32.871Z,58.61
2022-11-12T17:33:53.997Z,58.60
2022-11-12T17:35:14.976Z,58.70
2022-11-12T17:36:43.340Z,58.76
2022-11-12T17:38:04.531Z,58.75
2022-11-12T17:39:25.422Z,58.76
2022-11-12T17:40:48.588Z,58.92
2022-11-12T17:42:09.517Z,58.89
2022-11-12T17:43:30.445Z,59.05
2022-11-12T17:44:53.590Z,59.16
2022-11-12T17:46:15.513Z,59.09
2022-11-12T17:47:40.572Z,59.20
2022-11-12T17:49:01.722Z,59.38
2022-11-12T17:50:22.459Z,59.30
2022-11-12T17:51:43.512Z,59.22
2022-11-12T17:53:04.273Z,59.39
2022-11-12T17:54:27.959Z,59.49
2022-11-12T17:56:06.751Z,59.57
2022-11-12T17:57:27.662Z,59.75
2022-11-12T17:58:51.369Z,59.92
2022-11-12T18:00:13.465Z,59.94
2022-11-12T18:01:35.135Z,60.16
2022-11-12T18:03:02.124Z,60.42
2022-11-12T18:04:23.897Z,60.45
2022-11-12T18:05:59.156Z,60.42
2022-11-12T18:07:20.367Z,60.56
2022-11-12T18:08:42.474Z,60.62
2022-11-12T18:10:03.265Z,60.73
2022-11-12T18:11:25.342Z,60.94
2022-11-12T18:12:49.334Z,61.09
2022-11-12T18:14:11.426Z,61.05
2022-11-12T18:15:35.064Z,61.31
2022-11-12T18:16:59.031Z,61.40
2022-11-12T18:18:20.064Z,61.35
2022-11-12T18:19:40.990Z,61.36
2022-11-12T18:21:03.968Z,61.45
2022-11-12T18:22:25.158Z,61.50
2022-11-12T18:23:48.540Z,61.72
2022-11-12T18:25:09.676Z,61.83